createdAt,value
2019-03-17T00:02:22.083Z,97.93
2019-03-17T00:04:51.413Z,97.99
2019-03-17T00:07:22.992Z,97.78
2019-03-17T00:09:51.772Z,97.65
2019-03-17T00:12:22.101Z,97.68
2019-03-17T00:14:51.192Z,97.57
2019-03-17T00:17:25.023Z,96.99
2019-03-17T00:19:52.866Z,96.80
2019-03-17T00:22:24.706Z,97.02
2019-03-17T00:25:08.194Z,96.84
2019-03-17T00:27:26.452Z,96.85
2019-03-17T00:29:57.924Z,96.95
2019-03-17T00:32:29.202Z,96.18
2019-03-17T00:35:00.796Z,96.27
2019-03-17T00:37:32.171Z,96.04
2019-03-17T00:40:00.737Z,95.78
2019-03-17T00:42:32.277Z,95.89
2019-03-17T00:45:05.907Z,95.85
2019-03-17T00:47:37.175Z,95.80
2019-03-17T00:50:12.975Z,95.64
2019-03-17T00:52:41.511Z,95.18
2019-03-17T00:55:14.425Z,95.03
2019-03-17T00:57:46.004Z,95.49
2019-03-17T01:00:17.662Z,94.78
2019-03-17T01:02:49.504Z,94.60
2019-03-17T01:05:18.144Z,93.99
2019-03-17T01:07:49.619Z,94.07
2019-03-17T01:10:21.298Z,94.43
2019-03-17T01:12:52.521Z,94.08
2019-03-17T01:15:23.771Z,93.70
2019-03-17T01:17:55.137Z,93.40
2019-03-17T01:20:23.715Z,93.36
2019-03-17T01:22:52.258Z,93.29
2019-03-17T01:25:23.549Z,92.91
2019-03-17T01:27:55.032Z,92.71
2019-03-17T01:30:24.055Z,92.58
2019-03-17T01:32:55.426Z,92.63
2019-03-17T01:35:26.991Z,92.56
2019-03-17T01:37:58.383Z,92.48
2019-03-17T01:40:29.620Z,92.11
2019-03-17T01:42:58.276Z,92.40
2019-03-17T01:45:30.263Z,91.60
2019-03-17T01:47:58.810Z,91.45
2019-03-17T01:50:27.884Z,91.19
2019-03-17T01:52:56.814Z,91.08
2019-03-17T01:55:28.502Z,90.70
2019-03-17T01:58:00.201Z,90.88
2019-03-17T02:00:31.779Z,90.74
2019-03-17T02:03:00.324Z,90.87
2019-03-17T02:05:29.216Z,90.88
2019-03-17T02:07:57.830Z,90.55
2019-03-17T02:10:29.610Z,90.70
2019-03-17T02:12:58.317Z,90.43
2019-03-17T02:15:27.370Z,90.21
2019-03-17T02:17:58.784Z,89.96
2019-03-17T02:20:30.069Z,89.41
2019-03-17T02:23:01.643Z,89.10
2019-03-17T02:25:32.927Z,89.30
2019-03-17T02:28:01.541Z,89.12
2019-03-17T02:30:30.102Z,89.25
2019-03-17T02:33:01.621Z,89.56
2019-03-17T02:35:39.441Z,89.28
2019-03-17T02:38:03.517Z,88.98
2019-03-17T02:40:32.132Z,89.04
2019-03-17T02:43:00.705Z,89.24
2019-03-17T02:45:29.515Z,88.87
2019-03-17T02:48:01.314Z,87.81
2019-03-17T02:50:29.877Z,88.24
2019-03-17T02:53:01.085Z,88.04
2019-03-17T02:55:29.657Z,88.46
2019-03-17T02:57:58.209Z,88.33
2019-03-17T03:00:30.098Z,87.73
2019-03-17T03:03:01.552Z,87.31
2019-03-17T03:05:30.218Z,88.23
2019-03-17T03:07:59.253Z,88.21
2019-03-17T03:10:32.133Z,87.42
2019-03-17T03:13:03.966Z,87.05
2019-03-17T03:15:35.804Z,87.78
2019-03-17T03:18:07.287Z,86.96
2019-03-17T03:20:41.616Z,87.50
2019-03-17T03:23:12.871Z,87.73
2019-03-17T03:25:44.303Z,88.38
2019-03-17T03:28:12.860Z,87.67
2019-03-17T03:30:44.491Z,87.90
2019-03-17T03:33:13.115Z,87.61
2019-03-17T03:35:44.373Z,87.05
2019-03-17T03:38:15.648Z,87.69
2019-03-17T03:40:46.866Z,87.89
2019-03-17T03:43:18.161Z,87.83
2019-03-17T03:45:46.727Z,87.99
2019-03-17T03:48:18.516Z,88.22
2019-03-17T03:50:49.912Z,88.31
2019-03-17T03:53:18.529Z,88.80
2019-03-17T03:55:49.903Z,88.28
2019-03-17T03:58:21.208Z,88.28
2019-03-17T04:00:52.881Z,88.75
2019-03-17T04:03:24.190Z,88.57
2019-03-17T04:05:52.713Z,88.22
2019-03-17T04:08:21.391Z,88.63
2019-03-17T04:10:52.966Z,88.87
2019-03-17T04:13:21.694Z,89.11
2019-03-17T04:15:50.394Z,89.34
2019-03-17T04:18:19.206Z,89.54
2019-03-17T04:20:50.825Z,89.35
2019-03-17T04:23:19.463Z,90.16
2019-03-17T04:25:51.073Z,90.16
2019-03-17T04:28:19.618Z,90.26
2019-03-17T04:30:51.411Z,90.30
2019-03-17T04:33:20.355Z,90.44
2019-03-17T04:35:51.884Z,90.35
2019-03-17T04:38:23.680Z,90.56
2019-03-17T04:40:54.766Z,90.49
2019-03-17T04:43:23.333Z,90.07
2019-03-17T04:45:51.930Z,90.21
2019-03-17T04:48:23.624Z,90.37
2019-03-17T04:50:54.872Z,90.11
2019-03-17T04:53:26.368Z,89.99
2019-03-17T04:55:57.895Z,90.31
2019-03-17T04:58:26.458Z,90.50
2019-03-17T05:00:57.974Z,90.97
2019-03-17T05:03:26.620Z,90.87
2019-03-17T05:05:55.166Z,91.11
2019-03-17T05:08:26.714Z,90.79
2019-03-17T05:10:55.450Z,90.94
2019-03-17T05:13:24.057Z,91.16
2019-03-17T05:15:52.663Z,90.94
2019-03-17T05:18:21.567Z,90.50
2019-03-17T05:20:52.921Z,90.61
2019-03-17T05:23:21.492Z,90.89
2019-03-17T05:25:52.961Z,90.63
2019-03-17T05:28:23.194Z,90.95
2019-03-17T05:30:54.626Z,90.88
2019-03-17T05:33:23.266Z,90.86
2019-03-17T05:35:51.916Z,90.95
2019-03-17T05:38:23.429Z,90.90
2019-03-17T05:40:54.543Z,91.20
2019-03-17T05:43:25.818Z,91.28
2019-03-17T05:45:57.834Z,91.20
2019-03-17T05:48:27.811Z,91.33
2019-03-17T05:50:56.353Z,91.08
2019-03-17T05:53:27.837Z,91.23
2019-03-17T05:55:56.869Z,91.04
2019-03-17T05:58:25.436Z,91.10
2019-03-17T06:00:53.985Z,90.61
2019-03-17T06:03:23.440Z,90.33
2019-03-17T06:05:51.999Z,90.06
2019-03-17T06:08:23.611Z,89.21
2019-03-17T06:10:55.443Z,88.95
2019-03-17T06:13:24.110Z,88.51
2019-03-17T06:15:52.658Z,88.48
2019-03-17T06:18:21.241Z,87.76
2019-03-17T06:20:50.288Z,86.85
2019-03-17T06:23:18.990Z,87.02
2019-03-17T06:25:50.468Z,86.49
2019-03-17T06:28:21.558Z,86.22
2019-03-17T06:30:52.446Z,86.49
2019-03-17T06:33:21.073Z,86.13
2019-03-17T06:35:52.954Z,85.11
2019-03-17T06:38:24.595Z,85.45
2019-03-17T06:40:53.408Z,84.68
2019-03-17T06:43:21.977Z,84.66
2019-03-17T06:45:50.559Z,84.95
2019-03-17T06:48:19.104Z,84.62
2019-03-17T06:50:47.739Z,84.92
2019-03-17T06:53:19.002Z,84.69
2019-03-17T06:55:50.222Z,84.86
2019-03-17T06:58:18.766Z,84.72
2019-03-17T07:00:47.338Z,84.64
2019-03-17T07:03:15.880Z,84.55
2019-03-17T07:05:47.360Z,84.17
2019-03-17T07:08:16.231Z,84.22
2019-03-17T07:10:44.798Z,83.77
2019-03-17T07:13:13.513Z,83.21
2019-03-17T07:15:42.164Z,82.77
2019-03-17T07:18:11.198Z,81.69
2019-03-17T07:23:18.087Z,79.97
2019-03-17T07:25:46.650Z,80.70
2019-03-17T07:28:17.240Z,80.30
2019-03-17T07:30:45.830Z,80.38
2019-03-17T07:33:20.309Z,80.04
2019-03-17T07:35:46.501Z,79.08
2019-03-17T07:38:21.515Z,78.96
2019-03-17T07:40:54.428Z,79.58
2019-03-17T07:43:22.992Z,79.38
2019-03-17T07:45:54.475Z,79.72
2019-03-17T07:48:26.315Z,78.03
2019-03-17T07:50:57.950Z,75.46
2019-03-17T07:53:27.119Z,77.06
2019-03-17T07:55:58.681Z,75.57
2019-03-17T07:58:27.244Z,74.32
2019-03-17T08:00:56.432Z,73.43
2019-03-17T08:03:24.995Z,74.80
2019-03-17T08:05:53.625Z,74.76
2019-03-17T08:08:22.216Z,72.83
2019-03-17T08:10:53.860Z,71.19
2019-03-17T08:13:22.414Z,74.14
2019-03-17T08:15:53.744Z,72.19
2019-03-17T08:18:22.295Z,71.25
2019-03-17T08:20:53.916Z,72.99
2019-03-17T08:23:25.365Z,69.81
2019-03-17T08:25:56.864Z,70.37
2019-03-17T08:28:25.600Z,70.75
2019-03-17T08:30:54.189Z,67.46
2019-03-17T08:33:22.732Z,70.86
2019-03-17T08:35:54.504Z,67.86
2019-03-17T08:38:23.042Z,69.75
2019-03-17T08:40:53.733Z,66.77
2019-03-17T08:43:22.289Z,68.62
2019-03-17T08:45:50.851Z,67.00
2019-03-17T08:48:19.737Z,69.09
2019-03-17T08:50:51.054Z,68.65
2019-03-17T08:53:19.596Z,66.22
2019-03-17T08:55:48.795Z,66.06
2019-03-17T08:58:17.342Z,64.26
2019-03-17T09:00:45.913Z,65.49
2019-03-17T09:03:14.465Z,62.62
2019-03-17T09:05:45.712Z,60.31
2019-03-17T09:08:15.053Z,63.73
2019-03-17T09:10:43.622Z,63.85
2019-03-17T09:13:15.528Z,62.04
2019-03-17T09:15:44.302Z,62.29
2019-03-17T09:18:12.919Z,62.83
2019-03-17T09:20:44.523Z,64.28
2019-03-17T09:23:15.763Z,62.25
2019-03-17T09:25:44.456Z,64.73
2019-03-17T09:28:15.814Z,64.24
2019-03-17T09:30:44.367Z,65.36
2019-03-17T09:33:12.985Z,64.38
2019-03-17T09:35:41.594Z,64.46
2019-03-17T09:38:13.089Z,62.88
2019-03-17T09:40:41.639Z,64.50
2019-03-17T09:43:13.065Z,62.60
2019-03-17T09:45:44.642Z,61.22
2019-03-17T09:48:15.885Z,63.78
2019-03-17T09:50:47.675Z,61.66
2019-03-17T09:53:16.254Z,58.50
2019-03-17T09:55:44.797Z,60.01
2019-03-17T09:58:16.355Z,61.16
2019-03-17T10:00:48.022Z,62.25
2019-03-17T10:03:19.556Z,61.97
2019-03-17T10:05:50.916Z,60.94
2019-03-17T10:08:19.498Z,60.68
2019-03-17T10:10:48.128Z,59.38
2019-03-17T10:13:19.511Z,59.28
2019-03-17T10:15:48.142Z,60.55
2019-03-17T10:18:16.765Z,61.19
2019-03-17T10:20:45.387Z,61.11
2019-03-17T10:23:14.015Z,58.23
2019-03-17T10:25:45.817Z,56.56
2019-03-17T10:28:14.397Z,59.25
2019-03-17T10:30:42.948Z,58.34
2019-03-17T10:33:11.513Z,58.57
2019-03-17T10:35:42.944Z,58.27
2019-03-17T10:38:11.924Z,58.16
2019-03-17T10:40:40.530Z,56.90
2019-03-17T10:43:10.801Z,58.41
2019-03-17T10:45:39.350Z,58.73
2019-03-17T10:48:14.496Z,59.56
2019-03-17T10:50:49.870Z,59.26
2019-03-17T10:53:16.407Z,58.79
2019-03-17T10:55:45.383Z,59.60
2019-03-17T10:58:13.994Z,59.28
2019-03-17T11:00:42.538Z,62.59
2019-03-17T11:03:14.529Z,61.84
2019-03-17T11:05:43.152Z,62.91
2019-03-17T11:08:12.295Z,61.19
2019-03-17T11:10:42.385Z,62.37
2019-03-17T11:13:13.759Z,62.20
2019-03-17T11:15:45.742Z,65.63
2019-03-17T11:18:16.994Z,62.75
2019-03-17T11:20:49.024Z,62.26
2019-03-17T11:23:20.454Z,62.63
2019-03-17T11:25:51.791Z,61.23
2019-03-17T11:28:20.370Z,62.15
2019-03-17T11:30:54.946Z,62.43
2019-03-17T11:33:23.636Z,62.94
2019-03-17T11:35:55.037Z,62.32
2019-03-17T11:38:26.526Z,60.76
2019-03-17T11:40:57.845Z,61.31
2019-03-17T11:43:26.430Z,60.22
2019-03-17T11:45:57.683Z,62.05
2019-03-17T11:48:26.326Z,60.66
2019-03-17T11:50:58.231Z,59.30
2019-03-17T11:53:29.736Z,56.73
2019-03-17T11:55:58.357Z,59.96
2019-03-17T11:58:26.983Z,59.02
2019-03-17T12:00:55.547Z,59.25
2019-03-17T12:03:24.511Z,61.67
2019-03-17T12:05:53.059Z,62.20
2019-03-17T12:08:21.707Z,61.45
2019-03-17T12:10:50.252Z,61.64
2019-03-17T12:13:19.061Z,61.64
2019-03-17T12:15:47.604Z,62.59
2019-03-17T12:18:16.175Z,64.59
2019-03-17T12:20:47.728Z,68.23
2019-03-17T12:23:16.319Z,69.34
2019-03-17T12:25:44.872Z,73.12
2019-03-17T12:28:13.448Z,71.11
2019-03-17T12:30:42.018Z,69.28
2019-03-17T12:33:10.595Z,68.50
2019-03-17T12:35:41.851Z,67.93
2019-03-17T12:38:13.541Z,65.19
2019-03-17T12:40:42.087Z,68.40
2019-03-17T12:43:10.800Z,67.81
2019-03-17T12:45:39.613Z,67.33
2019-03-17T12:48:08.221Z,66.71
2019-03-17T12:50:36.860Z,67.61
2019-03-17T12:53:10.834Z,68.20
2019-03-17T12:55:42.346Z,65.74
2019-03-17T12:58:14.914Z,68.97
2019-03-17T13:00:46.724Z,68.49
2019-03-17T13:03:18.345Z,66.38
2019-03-17T13:05:49.576Z,68.17
2019-03-17T13:08:18.133Z,65.96
2019-03-17T13:10:46.809Z,65.65
2019-03-17T13:13:18.304Z,66.35
2019-03-17T13:15:49.769Z,65.59
2019-03-17T13:18:18.747Z,66.78
2019-03-17T13:20:50.323Z,65.88
2019-03-17T13:23:21.888Z,65.05
2019-03-17T13:25:50.512Z,65.39
2019-03-17T13:28:43.612Z,68.62
2019-03-17T13:31:15.589Z,68.54
2019-03-17T13:33:47.194Z,67.98
2019-03-17T13:36:15.818Z,66.30
2019-03-17T13:38:47.110Z,67.16
2019-03-17T13:41:15.734Z,67.68
2019-03-17T13:43:47.089Z,70.27
2019-03-17T13:46:18.674Z,76.22
2019-03-17T13:48:50.172Z,80.66
2019-03-17T13:51:18.815Z,84.83
2019-03-17T13:53:47.848Z,87.68
2019-03-17T13:56:19.235Z,90.06
2019-03-17T13:58:47.852Z,89.86
2019-03-17T14:01:19.298Z,89.74
2019-03-17T14:03:47.953Z,90.39
2019-03-17T14:06:17.067Z,90.10
2019-03-17T14:08:46.463Z,90.75
2019-03-17T14:11:15.027Z,90.05
2019-03-17T14:13:43.675Z,90.20
2019-03-17T14:16:15.849Z,90.03
2019-03-17T14:18:47.449Z,89.48
2019-03-17T14:21:16.094Z,89.64
2019-03-17T14:23:47.874Z,88.92
2019-03-17T14:26:19.463Z,88.88
2019-03-17T14:28:48.109Z,87.87
2019-03-17T14:31:16.723Z,88.77
2019-03-17T14:33:45.340Z,88.03
2019-03-17T14:36:13.965Z,86.97
2019-03-17T14:38:43.005Z,86.66
2019-03-17T14:41:14.749Z,86.38
2019-03-17T14:43:43.295Z,87.34
2019-03-17T14:46:11.969Z,86.46
2019-03-17T14:48:43.521Z,85.39
2019-03-17T14:51:14.810Z,86.84
2019-03-17T14:53:46.903Z,87.86
2019-03-17T14:56:18.282Z,86.16
2019-03-17T14:58:47.204Z,85.43
2019-03-17T15:01:15.840Z,87.86
2019-03-17T15:03:44.712Z,88.16
2019-03-17T15:06:13.385Z,88.29
2019-03-17T15:08:41.990Z,87.66
2019-03-17T15:11:14.224Z,88.11
2019-03-17T15:13:43.134Z,86.11
2019-03-17T15:16:11.739Z,86.71
2019-03-17T15:18:40.481Z,84.00
2019-03-17T15:21:10.685Z,85.25
2019-03-17T15:23:43.800Z,83.71
2019-03-17T15:26:15.312Z,84.44
2019-03-17T15:28:43.950Z,84.69
2019-03-17T15:31:12.775Z,84.43
2019-03-17T15:33:41.549Z,85.54
2019-03-17T15:36:11.630Z,83.60
2019-03-17T15:38:43.207Z,83.61
2019-03-17T15:41:18.540Z,81.70
2019-03-17T15:43:42.040Z,81.80
2019-03-17T15:46:13.448Z,80.97
2019-03-17T15:48:42.063Z,80.74
2019-03-17T15:51:20.356Z,80.43
2019-03-17T15:53:46.560Z,82.93
2019-03-17T15:56:18.064Z,79.73
2019-03-17T15:58:46.673Z,78.75
2019-03-17T16:01:18.243Z,80.92
2019-03-17T16:03:47.243Z,80.83
2019-03-17T16:06:19.088Z,80.20
2019-03-17T16:08:48.339Z,81.86
2019-03-17T16:11:30.345Z,83.20
2019-03-17T16:13:52.625Z,83.23
2019-03-17T16:16:23.868Z,79.92
2019-03-17T16:18:52.413Z,79.72
2019-03-17T16:21:21.074Z,80.80
2019-03-17T16:23:52.868Z,83.60
2019-03-17T16:26:21.490Z,85.28
2019-03-17T16:28:52.878Z,80.74
2019-03-17T16:31:21.510Z,81.20
2019-03-17T16:33:50.147Z,81.62
2019-03-17T16:36:21.627Z,82.24
2019-03-17T16:38:50.490Z,82.77
2019-03-17T16:41:22.112Z,82.80
2019-03-17T16:43:50.693Z,83.58
2019-03-17T16:46:21.085Z,82.68
2019-03-17T16:48:52.411Z,81.96
2019-03-17T16:51:21.031Z,82.54
2019-03-17T16:53:53.016Z,83.10
2019-03-17T16:56:21.672Z,83.36
2019-03-17T16:58:50.554Z,82.46
2019-03-17T17:01:19.172Z,83.14
2019-03-17T17:03:47.740Z,82.92
2019-03-17T17:06:19.471Z,84.05
2019-03-17T17:08:48.037Z,83.44
2019-03-17T17:11:16.620Z,84.01
2019-03-17T17:13:45.214Z,85.38
2019-03-17T17:16:13.862Z,85.17
2019-03-17T17:18:45.838Z,85.71
2019-03-17T17:21:17.251Z,86.14
2019-03-17T17:23:48.769Z,85.70
2019-03-17T17:26:20.319Z,85.21
2019-03-17T17:28:48.886Z,85.94
2019-03-17T17:31:17.444Z,85.52
2019-03-17T17:33:49.529Z,86.34
2019-03-17T17:36:18.077Z,87.41
2019-03-17T17:38:50.081Z,87.23
2019-03-17T17:41:18.703Z,87.77
2019-03-17T17:43:50.794Z,86.89
2019-03-17T17:46:21.997Z,87.47
2019-03-17T17:48:53.231Z,88.09
2019-03-17T17:51:24.739Z,88.75
2019-03-17T17:53:53.714Z,88.00
2019-03-17T17:56:25.532Z,86.79
2019-03-17T17:58:55.746Z,86.75
2019-03-17T18:01:24.292Z,86.04
2019-03-17T18:03:53.085Z,86.33
2019-03-17T18:06:21.693Z,86.33
2019-03-17T18:08:52.971Z,85.22
2019-03-17T18:11:24.498Z,85.38
2019-03-17T18:13:56.063Z,85.38
2019-03-17T18:16:27.439Z,85.18
2019-03-17T18:18:58.924Z,85.49
2019-03-17T18:21:27.536Z,85.61
2019-03-17T18:23:56.270Z,85.35
2019-03-17T18:26:27.843Z,85.58
2019-03-17T18:28:56.452Z,85.94
2019-03-17T18:31:24.996Z,86.33
2019-03-17T18:33:59.340Z,84.16
2019-03-17T18:36:32.856Z,81.91
2019-03-17T18:39:05.582Z,78.57
2019-03-17T18:41:34.199Z,76.44
2019-03-17T18:44:02.812Z,76.37
2019-03-17T18:46:31.352Z,75.51
2019-03-17T18:49:03.262Z,74.27
2019-03-17T18:51:31.820Z,76.17
2019-03-17T18:54:05.522Z,72.54
2019-03-17T18:56:33.778Z,72.28
2019-03-17T18:59:05.850Z,72.94
2019-03-17T19:01:34.409Z,74.62
2019-03-17T19:04:10.048Z,73.03
2019-03-17T19:06:41.338Z,74.61
2019-03-17T19:09:11.582Z,73.66
2019-03-17T19:11:44.605Z,73.83
2019-03-17T19:14:16.186Z,74.46
2019-03-17T19:16:47.827Z,74.85
2019-03-17T19:19:16.436Z,74.64
2019-03-17T19:21:45.062Z,74.14
2019-03-17T19:24:16.751Z,75.48
2019-03-17T19:26:48.143Z,75.40
2019-03-17T19:29:17.257Z,74.41
2019-03-17T19:31:45.886Z,74.69
2019-03-17T19:34:17.257Z,75.85
2019-03-17T19:36:45.882Z,75.00
2019-03-17T19:39:14.507Z,74.29
2019-03-17T19:41:43.455Z,74.22
2019-03-17T19:44:15.207Z,75.31
2019-03-17T19:46:43.865Z,75.52
2019-03-17T19:49:12.478Z,76.56
2019-03-17T19:51:44.073Z,76.35
2019-03-17T19:54:12.685Z,76.79
2019-03-17T19:56:44.263Z,76.82
2019-03-17T19:59:12.874Z,78.23
2019-03-17T20:01:44.145Z,76.60
2019-03-17T20:04:12.768Z,77.64
2019-03-17T20:06:41.403Z,77.64
2019-03-17T20:09:11.114Z,78.61
2019-03-17T20:11:43.007Z,79.56
2019-03-17T20:14:14.588Z,79.14
2019-03-17T20:16:43.199Z,79.82
2019-03-17T20:19:15.193Z,79.90
2019-03-17T20:21:45.025Z,81.40
2019-03-17T20:24:13.637Z,81.02
2019-03-17T20:26:42.255Z,81.12
2019-03-17T20:29:12.717Z,81.49
2019-03-17T20:31:44.214Z,81.92
2019-03-17T20:34:13.343Z,82.02
2019-03-17T20:36:41.950Z,82.25
2019-03-17T20:39:13.537Z,81.92
2019-03-17T20:41:42.472Z,81.92
2019-03-17T20:44:17.027Z,82.08
2019-03-17T20:46:45.637Z,82.08
2019-03-17T20:49:17.142Z,82.83
2019-03-17T20:51:45.724Z,83.54
2019-03-17T20:54:14.277Z,82.06
2019-03-17T20:56:43.220Z,82.42
2019-03-17T20:59:11.782Z,82.37
2019-03-17T21:01:43.116Z,82.56
2019-03-17T21:04:11.726Z,82.17
2019-03-17T21:06:43.446Z,82.17
2019-03-17T21:09:12.005Z,82.20
2019-03-17T21:11:41.492Z,82.74
2019-03-17T21:14:13.339Z,82.48
2019-03-17T21:16:41.926Z,81.91
2019-03-17T21:19:13.230Z,81.91
2019-03-17T21:21:44.898Z,81.59
2019-03-17T21:24:13.471Z,81.41
2019-03-17T21:26:44.982Z,81.57
2019-03-17T21:29:13.889Z,81.57
2019-03-17T21:31:42.489Z,81.22
2019-03-17T21:34:13.963Z,81.81
2019-03-17T21:36:42.534Z,81.42
2019-03-17T21:39:18.064Z,82.51
2019-03-17T21:41:46.699Z,82.21
2019-03-17T21:44:15.250Z,82.21
2019-03-17T21:46:44.737Z,82.61
2019-03-17T21:49:13.659Z,82.18
2019-03-17T21:51:42.252Z,81.89
2019-03-17T21:54:12.336Z,81.89
2019-03-17T21:56:43.636Z,82.22
2019-03-17T21:59:15.131Z,82.79
2019-03-17T22:01:43.716Z,83.15
2019-03-17T22:04:12.266Z,83.15
2019-03-17T22:06:43.548Z,82.93
2019-03-17T22:09:12.140Z,82.93
2019-03-17T22:11:40.771Z,83.86
2019-03-17T22:14:12.566Z,83.86
2019-03-17T22:16:47.002Z,84.03
2019-03-17T22:19:18.437Z,83.39
2019-03-17T22:21:47.007Z,82.33
2019-03-17T22:24:15.570Z,82.33
2019-03-17T22:26:44.153Z,82.13
2019-03-17T22:29:12.880Z,82.13
2019-03-17T22:31:41.543Z,82.76
2019-03-17T22:34:11.710Z,81.83
2019-03-17T22:36:40.342Z,82.69
2019-03-17T22:39:11.876Z,82.69
2019-03-17T22:41:44.245Z,83.28
2019-03-17T22:44:23.746Z,83.28
2019-03-17T22:46:45.832Z,82.40
2019-03-17T22:49:17.433Z,82.25
2019-03-17T22:51:45.991Z,82.25
2019-03-17T22:54:17.560Z,83.23
2019-03-17T22:56:48.999Z,82.49
2019-03-17T22:59:20.572Z,82.49
2019-03-17T23:01:52.625Z,83.15
2019-03-17T23:04:22.177Z,81.90
2019-03-17T23:06:50.873Z,82.46
2019-03-17T23:09:19.874Z,82.46
2019-03-17T23:11:48.432Z,82.88
2019-03-17T23:14:17.143Z,82.97
2019-03-17T23:16:48.775Z,83.43
2019-03-17T23:19:17.353Z,83.43
2019-03-17T23:21:45.924Z,83.38
2019-03-17T23:24:17.421Z,83.38
2019-03-17T23:26:46.315Z,83.78
2019-03-17T23:29:18.199Z,83.44
2019-03-17T23:31:46.759Z,83.44
2019-03-17T23:34:18.263Z,83.27
2019-03-17T23:36:46.827Z,84.17
2019-03-17T23:39:18.268Z,83.59
2019-03-17T23:41:46.856Z,83.62
2019-03-17T23:44:18.265Z,83.37
2019-03-17T23:46:49.885Z,83.73
2019-03-17T23:49:18.453Z,83.73
2019-03-17T23:51:47.024Z,84.24
2019-03-17T23:54:15.599Z,84.07
2019-03-17T23:56:47.185Z,84.07
2019-03-17T23:59:18.775Z,84.10
